| time (UTC) | temp C | wind direction | speed KPH | gust KPH | rain 1hr cm | rain 24hr cm | rain mn cm | humidity % | barometer mb |
| 20260507203152 | 30 | 51 | 8.0 | 9.7 | 0.00 | 0.00 | 0.00 | 75 | 1016.1 |
| 20260507202648 | 30 | 101 | 9.7 | 12.9 | 0.00 | 0.00 | 0.00 | 75 | 1016.1 |
| 20260507202144 | 30 | 61 | 8.0 | 11.3 | 0.00 | 0.00 | 0.00 | 75 | 1016.1 |
| 20260507201639 | 30 | 16 | 4.8 | 8.0 | 0.00 | 0.00 | 0.00 | 74 | 1016.3 |
| 20260507201137 | 30 | 29 | 8.0 | 9.7 | 0.00 | 0.00 | 0.00 | 73 | 1016.2 |
| 20260507200633 | 30 | 87 | 9.7 | 12.9 | 0.00 | 0.00 | 0.00 | 74 | 1016.7 |
| 20260507200129 | 31 | 97 | 4.8 | 8.0 | 0.00 | 0.00 | 0.00 | 71 | 1016.7 |
| 20260507195626 | 31 | 113 | 8.0 | 14.5 | 0.00 | 0.00 | 0.00 | 72 | 1016.7 |
| 20260507195123 | 31 | 243 | 4.8 | 8.0 | 0.00 | 0.00 | 0.00 | 72 | 1016.7 |
| 20260507194620 | 31 | 59 | 6.4 | 9.7 | 0.00 | 0.00 | 0.00 | 72 | 1016.5 |
| 20260507194115 | 30 | 88 | 4.8 | 8.0 | 0.00 | 0.00 | 0.00 | 72 | 1016.5 |
| 20260507193612 | 31 | 10 | 4.8 | 8.0 | 0.00 | 0.00 | 0.00 | 72 | 1016.7 |
| 20260507193109 | 30 | 41 | 8.0 | 12.9 | 0.00 | 0.00 | 0.00 | 72 | 1016.3 |
| 20260507192605 | 31 | 120 | 4.8 | 4.8 | 0.00 | 0.00 | 0.00 | 73 | 1016.7 |
| 20260507192103 | 31 | 139 | 4.8 | 8.0 | 0.00 | 0.00 | 0.00 | 72 | 1016.8 |
| 20260507191558 | 30 | 265 | 6.4 | 11.3 | 0.00 | 0.00 | 0.00 | 75 | 1016.6 |
| 20260507191055 | 30 | 49 | 6.4 | 11.3 | 0.00 | 0.00 | 0.00 | 72 | 1016.7 |
| 20260507190552 | 31 | 89 | 9.7 | 17.7 | 0.00 | 0.00 | 0.00 | 71 | 1016.7 |
| 20260507190051 | 31 | 97 | 4.8 | 8.0 | 0.00 | 0.00 | 0.00 | 71 | 1016.8 |
| 20260507185549 | 31 | 32 | 9.7 | 12.9 | 0.00 | 0.00 | 0.00 | 71 | 1016.7 |
| 20260507185045 | 31 | 105 | 9.7 | 14.5 | 0.00 | 0.00 | 0.00 | 70 | 1016.7 |
| 20260507184544 | 31 | 127 | 8.0 | 12.9 | 0.00 | 0.00 | 0.00 | 69 | 1016.8 |
| 20260507184041 | 31 | 68 | 4.8 | 4.8 | 0.00 | 0.00 | 0.00 | 68 | 1016.7 |
| 20260507183537 | 31 | 123 | 6.4 | 11.3 | 0.00 | 0.00 | 0.00 | 71 | 1016.9 |
| 20260507183034 | 31 | 22 | 11.3 | 14.5 | 0.00 | 0.00 | 0.00 | 71 | 1017.1 |
| 20260507182530 | 31 | 60 | 6.4 | 12.9 | 0.00 | 0.00 | 0.00 | 70 | 1017.0 |
| 20260507182026 | 31 | 88 | 9.7 | 12.9 | 0.00 | 0.00 | 0.00 | 67 | 1016.9 |
| 20260507181524 | 31 | 36 | 4.8 | 8.0 | 0.00 | 0.00 | 0.00 | 70 | 1017.2 |
| 20260507181020 | 31 | 84 | 3.2 | 4.8 | 0.00 | 0.00 | 0.00 | 70 | 1017.0 |
| 20260507180516 | 31 | 110 | 9.7 | 12.9 | 0.00 | 0.00 | 0.00 | 70 | 1016.9 |
| 20260507180013 | 31 | 137 | 1.6 | 3.2 | 0.00 | 0.00 | 0.00 | 69 | 1017.3 |
| 20260507175509 | 31 | 28 | 1.6 | 3.2 | 0.00 | 0.00 | 0.00 | 70 | 1017.3 |
| 20260507175007 | 31 | 92 | 11.3 | 14.5 | 0.00 | 0.00 | 0.00 | 68 | 1017.4 |
| 20260507174504 | 31 | 36 | 6.4 | 9.7 | 0.00 | 0.00 | 0.00 | 70 | 1017.4 |
| 20260507174002 | 31 | 52 | 4.8 | 8.0 | 0.00 | 0.00 | 0.00 | 70 | 1017.5 |
| 20260507173458 | 31 | 109 | 4.8 | 8.0 | 0.00 | 0.00 | 0.00 | 70 | 1017.8 |
| 20260507172955 | 31 | 48 | 8.0 | 12.9 | 0.00 | 0.00 | 0.00 | 70 | 1017.7 |
| 20260507172451 | 31 | 116 | 11.3 | 12.9 | 0.00 | 0.00 | 0.00 | 68 | 1017.8 |
| 20260507171948 | 31 | 84 | 8.0 | 9.7 | 0.00 | 0.00 | 0.00 | 68 | 1018.1 |
| 20260507171444 | 31 | 88 | 8.0 | 9.7 | 0.00 | 0.00 | 0.00 | 67 | 1017.8 |
| 20260507170941 | 31 | 34 | 4.8 | 8.0 | 0.00 | 0.00 | 0.00 | 67 | 1018.2 |
| 20260507170438 | 31 | 63 | 4.8 | 8.0 | 0.00 | 0.00 | 0.00 | 68 | 1017.9 |
| 20260507165934 | 31 | 158 | 4.8 | 8.0 | 0.00 | 0.00 | 0.00 | 71 | 1018.0 |
| 20260507165430 | 31 | 40 | 9.7 | 12.9 | 0.00 | 0.00 | 0.00 | 67 | 1018.2 |
| 20260507164926 | 31 | 99 | 6.4 | 9.7 | 0.00 | 0.00 | 0.00 | 70 | 1018.2 |
| 20260507164424 | 31 | 73 | 8.0 | 11.3 | 0.00 | 0.00 | 0.00 | 70 | 1018.1 |
| 20260507163920 | 31 | 97 | 4.8 | 9.7 | 0.00 | 0.00 | 0.00 | 69 | 1018.3 |
| 20260507163418 | 31 | 65 | 8.0 | 11.3 | 0.00 | 0.00 | 0.00 | 70 | 1018.6 |
| 20260507162914 | 31 | 71 | 9.7 | 12.9 | 0.00 | 0.00 | 0.00 | 71 | 1018.5 |
| 20260507162410 | 31 | 215 | 0.0 | 0.0 | 0.00 | 0.00 | 0.00 | 70 | 1018.7 |
| 20260507161908 | 31 | 10 | 8.0 | 12.9 | 0.00 | 0.00 | 0.00 | 70 | 1018.8 |
| 20260507161403 | 30 | 28 | 8.0 | 11.3 | 0.00 | 0.00 | 0.00 | 73 | 1018.8 |
| 20260507160900 | 31 | 147 | 6.4 | 9.7 | 0.00 | 0.00 | 0.00 | 74 | 1018.6 |
| 20260507160356 | 30 | 68 | 14.5 | 17.7 | 0.00 | 0.00 | 0.00 | 73 | 1018.6 |
| 20260507155852 | 31 | 85 | 11.3 | 20.9 | 0.00 | 0.00 | 0.00 | 71 | 1018.7 |
| 20260507155348 | 31 | 79 | 4.8 | 8.0 | 0.00 | 0.00 | 0.00 | 71 | 1018.6 |
| 20260507154845 | 31 | 67 | 14.5 | 17.7 | 0.00 | 0.00 | 0.00 | 73 | 1018.8 |
| 20260507154342 | 31 | 12 | 6.4 | 11.3 | 0.00 | 0.00 | 0.00 | 69 | 1019.1 |
| 20260507153839 | 31 | 72 | 8.0 | 12.9 | 0.00 | 0.00 | 0.00 | 71 | 1019.2 |
| 20260507153336 | 31 | 49 | 8.0 | 11.3 | 0.00 | 0.00 | 0.00 | 72 | 1018.6 |
| 20260507152832 | 31 | 23 | 9.7 | 12.9 | 0.00 | 0.00 | 0.00 | 70 | 1019.0 |
| 20260507152328 | 31 | 36 | 4.8 | 8.0 | 0.00 | 0.00 | 0.00 | 72 | 1018.9 |
| 20260507151825 | 31 | 71 | 6.4 | 8.0 | 0.00 | 0.00 | 0.00 | 72 | 1018.8 |
| 20260507151321 | 30 | 83 | 8.0 | 9.7 | 0.00 | 0.00 | 0.00 | 74 | 1018.9 |
| 20260507150818 | 31 | 25 | 9.7 | 12.9 | 0.00 | 0.00 | 0.00 | 72 | 1019.0 |
| 20260507150314 | 31 | 203 | 4.8 | 4.8 | 0.00 | 0.00 | 0.00 | 72 | 1018.9 |
| 20260507145811 | 31 | 331 | 3.2 | 4.8 | 0.00 | 0.00 | 0.00 | 72 | 1019.1 |
| 20260507145307 | 31 | 141 | 6.4 | 9.7 | 0.00 | 0.00 | 0.00 | 70 | 1018.9 |
| 20260507144805 | 31 | 32 | 4.8 | 4.8 | 0.00 | 0.00 | 0.00 | 70 | 1019.1 |
| 20260507144302 | 31 | 103 | 1.6 | 3.2 | 0.00 | 0.00 | 0.00 | 73 | 1019.1 |
| 20260507143758 | 30 | 74 | 6.4 | 8.0 | 0.00 | 0.00 | 0.00 | 73 | 1019.3 |
| 20260507143256 | 30 | 85 | 3.2 | 4.8 | 0.00 | 0.00 | 0.00 | 72 | 1019.3 |
| 20260507142751 | 31 | 24 | 4.8 | 4.8 | 0.00 | 0.00 | 0.00 | 73 | 1019.5 |
| 20260507142248 | 30 | 65 | 4.8 | 9.7 | 0.00 | 0.00 | 0.00 | 71 | 1019.2 |
| 20260507141745 | 30 | 352 | 8.0 | 12.9 | 0.00 | 0.00 | 0.00 | 73 | 1019.4 |
| 20260507141242 | 29 | 155 | 0.0 | 1.6 | 0.00 | 0.00 | 0.00 | 73 | 1019.6 |
| 20260507140738 | 29 | 138 | 1.6 | 1.6 | 0.00 | 0.00 | 0.00 | 75 | 1019.3 |
| 20260507140236 | 30 | 33 | 6.4 | 9.7 | 0.00 | 0.00 | 0.00 | 74 | 1019.1 |
| 20260507135732 | 30 | 59 | 4.8 | 8.0 | 0.00 | 0.00 | 0.00 | 72 | 1019.3 |
| 20260507135230 | 30 | 312 | 4.8 | 4.8 | 0.00 | 0.00 | 0.00 | 71 | 1019.5 |
| 20260507134726 | 30 | 66 | 6.4 | 9.7 | 0.00 | 0.00 | 0.00 | 70 | 1019.5 |
| 20260507134222 | 30 | 96 | 4.8 | 8.0 | 0.00 | 0.00 | 0.00 | 70 | 1019.5 |
| 20260507133718 | 30 | 117 | 1.6 | 3.2 | 0.00 | 0.00 | 0.00 | 69 | 1019.4 |
| 20260507133215 | 30 | 117 | 6.4 | 9.7 | 0.00 | 0.00 | 0.00 | 68 | 1019.8 |
| 20260507132713 | 30 | 82 | 4.8 | 4.8 | 0.00 | 0.00 | 0.00 | 70 | 1019.6 |
| 20260507132209 | 31 | 105 | 4.8 | 4.8 | 0.00 | 0.00 | 0.00 | 69 | 1019.5 |
| 20260507131706 | 30 | 357 | 1.6 | 3.2 | 0.00 | 0.00 | 0.00 | 69 | 1019.5 |
| 20260507131204 | 30 | 123 | 3.2 | 3.2 | 0.00 | 0.00 | 0.00 | 71 | 1019.2 |
| 20260507130700 | 30 | 94 | 8.0 | 11.3 | 0.00 | 0.00 | 0.00 | 71 | 1019.4 |
| 20260507130158 | 30 | 155 | 3.2 | 4.8 | 0.00 | 0.00 | 0.00 | 70 | 1019.3 |
| 20260507125656 | 30 | 86 | 4.8 | 4.8 | 0.00 | 0.00 | 0.00 | 71 | 1019.1 |
| 20260507125154 | 30 | 98 | 8.0 | 9.7 | 0.00 | 0.00 | 0.00 | 71 | 1019.3 |
| 20260507124649 | 29 | 176 | 3.2 | 4.8 | 0.00 | 0.00 | 0.00 | 71 | 1019.3 |
| 20260507124147 | 29 | 77 | 3.2 | 4.8 | 0.00 | 0.00 | 0.00 | 71 | 1019.1 |
| 20260507123646 | 29 | 182 | 0.0 | 0.0 | 0.00 | 0.00 | 0.00 | 72 | 1019.1 |
| 20260507123142 | 29 | 135 | 3.2 | 4.8 | 0.00 | 0.00 | 0.00 | 70 | 1019.4 |
| 20260507122637 | 30 | 154 | 3.2 | 4.8 | 0.00 | 0.00 | 0.00 | 70 | 1019.0 |
| 20260507122133 | 29 | 198 | 0.0 | 0.0 | 0.00 | 0.00 | 0.00 | 71 | 1018.9 |
| 20260507121629 | 29 | 106 | 4.8 | 8.0 | 0.00 | 0.00 | 0.00 | 71 | 1019.0 |
| 20260507121126 | 28 | 83 | 3.2 | 4.8 | 0.00 | 0.00 | 0.00 | 71 | 1018.8 |
| 20260507120622 | 29 | 182 | 0.0 | 0.0 | 0.00 | 0.00 | 0.00 | 71 | 1018.7 |
| 20260507120118 | 28 | 163 | 0.0 | 0.0 | 0.00 | 0.00 | 0.00 | 73 | 1018.7 |
| 20260507115615 | 28 | 132 | 1.6 | 1.6 | 0.00 | 0.00 | 0.00 | 74 | 1018.7 |
| 20260507115111 | 28 | 146 | 0.0 | 1.6 | 0.00 | 0.00 | 0.00 | 74 | 1018.8 |
| 20260507114607 | 28 | 184 | 0.0 | 0.0 | 0.00 | 0.00 | 0.00 | 75 | 1018.6 |
| 20260507114104 | 27 | 172 | 0.0 | 0.0 | 0.00 | 0.00 | 0.00 | 76 | 1018.3 |
| 20260507113601 | 27 | 144 | 1.6 | 1.6 | 0.00 | 0.00 | 0.00 | 78 | 1018.6 |
| 20260507113058 | 27 | 121 | 0.0 | 1.6 | 0.00 | 0.00 | 0.00 | 77 | 1018.5 |
| 20260507112556 | 27 | 176 | 0.0 | 0.0 | 0.00 | 0.00 | 0.00 | 78 | 1018.3 |
| 20260507112053 | 26 | 165 | 1.6 | 1.6 | 0.00 | 0.00 | 0.00 | 79 | 1018.2 |
| 20260507111550 | 26 | 163 | 0.0 | 0.0 | 0.00 | 0.00 | 0.00 | 78 | 1018.3 |
| 20260507111046 | 26 | 151 | 1.6 | 1.6 | 0.00 | 0.00 | 0.00 | 80 | 1018.5 |
| 20260507110543 | 26 | 169 | 0.0 | 0.0 | 0.00 | 0.00 | 0.00 | 81 | 1018.5 |
| 20260507110039 | 25 | 172 | 1.6 | 1.6 | 0.00 | 0.00 | 0.00 | 83 | 1018.3 |
| 20260507105536 | 25 | 162 | 0.0 | 0.0 | 0.00 | 0.00 | 0.00 | 82 | 1018.2 |
| 20260507105032 | 25 | 171 | 0.0 | 0.0 | 0.00 | 0.00 | 0.00 | 82 | 1018.5 |
| 20260507104530 | 25 | 189 | 0.0 | 0.0 | 0.00 | 0.00 | 0.00 | 84 | 1018.2 |
| 20260507104026 | 23 | 198 | 0.0 | 0.0 | 0.00 | 0.00 | 0.00 | 87 | 1018.1 |
| 20260507103522 | 23 | 198 | 0.0 | 0.0 | 0.00 | 0.00 | 0.00 | 88 | 1018.3 |
| 20260507103019 | 23 | 200 | 0.0 | 0.0 | 0.00 | 0.00 | 0.00 | 89 | 1018.0 |
| 20260507102516 | 23 | 193 | 0.0 | 0.0 | 0.00 | 0.00 | 0.00 | 89 | 1018.2 |
| 20260507102012 | 22 | 213 | 0.0 | 0.0 | 0.00 | 0.00 | 0.00 | 89 | 1018.0 |
| 20260507101507 | 22 | 233 | 0.0 | 0.0 | 0.00 | 0.00 | 0.00 | 90 | 1018.1 |
| 20260507101004 | 22 | 239 | 0.0 | 0.0 | 0.00 | 0.00 | 0.00 | 90 | 1018.0 |
| 20260507100501 | 22 | 202 | 0.0 | 0.0 | 0.00 | 0.00 | 0.00 | 90 | 1018.1 |
| 20260507095959 | 22 | 205 | 0.0 | 0.0 | 0.00 | 0.00 | 0.00 | 90 | 1017.9 |
| 20260507095457 | 22 | 216 | 0.0 | 0.0 | 0.00 | 0.00 | 0.00 | 90 | 1018.0 |
| 20260507094953 | 22 | 209 | 0.0 | 0.0 | 0.00 | 0.00 | 0.00 | 91 | 1017.8 |
| 20260507094450 | 22 | 176 | 0.0 | 0.0 | 0.00 | 0.00 | 0.00 | 92 | 1017.6 |
| 20260507093947 | 22 | 177 | 0.0 | 0.0 | 0.00 | 0.00 | 0.00 | 91 | 1017.5 |
| 20260507093444 | 22 | 177 | 0.0 | 0.0 | 0.00 | 0.00 | 0.00 | 91 | 1017.4 |
| 20260507092943 | 22 | 168 | 0.0 | 0.0 | 0.00 | 0.00 | 0.00 | 90 | 1017.4 |
| 20260507092438 | 22 | 153 | 1.6 | 1.6 | 0.00 | 0.00 | 0.00 | 90 | 1017.4 |
| 20260507091936 | 22 | 179 | 0.0 | 0.0 | 0.00 | 0.00 | 0.00 | 89 | 1017.4 |
| 20260507091432 | 22 | 176 | 0.0 | 0.0 | 0.00 | 0.00 | 0.00 | 89 | 1017.7 |
| 20260507090928 | 22 | 171 | 0.0 | 0.0 | 0.00 | 0.00 | 0.00 | 89 | 1017.8 |
| 20260507090424 | 22 | 172 | 0.0 | 0.0 | 0.00 | 0.00 | 0.00 | 88 | 1017.8 |
| 20260507085915 | 22 | 171 | 0.0 | 0.0 | 0.00 | 0.00 | 0.00 | 88 | 1017.9 |
| 20260507085412 | 22 | 187 | 0.0 | 0.0 | 0.00 | 0.00 | 0.00 | 88 | 1017.8 |
| 20260507084909 | 22 | 179 | 0.0 | 0.0 | 0.00 | 0.00 | 0.00 | 88 | 1017.7 |
| 20260507084406 | 22 | 174 | 0.0 | 0.0 | 0.00 | 0.00 | 0.00 | 88 | 1018.0 |
| 20260507083903 | 22 | 175 | 0.0 | 0.0 | 0.00 | 0.00 | 0.00 | 88 | 1017.9 |
| 20260507083359 | 22 | 139 | 1.6 | 1.6 | 0.00 | 0.00 | 0.00 | 88 | 1018.1 |
| 20260507082856 | 23 | 147 | 1.6 | 1.6 | 0.00 | 0.00 | 0.00 | 87 | 1018.0 |
| 20260507082351 | 23 | 182 | 0.0 | 0.0 | 0.00 | 0.00 | 0.00 | 87 | 1018.0 |
| 20260507081849 | 23 | 180 | 0.0 | 0.0 | 0.00 | 0.00 | 0.00 | 88 | 1017.8 |
| 20260507081345 | 23 | 178 | 0.0 | 0.0 | 0.00 | 0.00 | 0.00 | 88 | 1017.9 |
| 20260507080842 | 23 | 171 | 0.0 | 1.6 | 0.00 | 0.00 | 0.00 | 88 | 1017.6 |
| 20260507080338 | 23 | 176 | 0.0 | 0.0 | 0.00 | 0.00 | 0.00 | 88 | 1017.7 |
| 20260507075833 | 23 | 186 | 0.0 | 0.0 | 0.00 | 0.00 | 0.00 | 88 | 1017.8 |
| 20260507075329 | 23 | 201 | 0.0 | 0.0 | 0.00 | 0.00 | 0.00 | 88 | 1017.9 |
| 20260507074826 | 23 | 197 | 0.0 | 0.0 | 0.00 | 0.00 | 0.00 | 88 | 1017.8 |
| 20260507074324 | 23 | 212 | 0.0 | 0.0 | 0.00 | 0.00 | 0.00 | 88 | 1017.7 |
| 20260507073821 | 23 | 204 | 0.0 | 0.0 | 0.00 | 0.00 | 0.00 | 89 | 1017.8 |
| 20260507073317 | 23 | 196 | 0.0 | 0.0 | 0.00 | 0.00 | 0.00 | 89 | 1017.8 |
| 20260507072815 | 22 | 176 | 0.0 | 0.0 | 0.00 | 0.00 | 0.00 | 90 | 1017.8 |
| 20260507072312 | 23 | 175 | 0.0 | 0.0 | 0.00 | 0.00 | 0.00 | 89 | 1018.0 |
| 20260507071809 | 23 | 182 | 0.0 | 0.0 | 0.00 | 0.00 | 0.00 | 88 | 1017.9 |
| 20260507071306 | 23 | 178 | 0.0 | 0.0 | 0.00 | 0.00 | 0.00 | 88 | 1017.8 |
| 20260507070802 | 23 | 179 | 0.0 | 0.0 | 0.00 | 0.00 | 0.00 | 88 | 1017.9 |
| 20260507070300 | 23 | 182 | 0.0 | 0.0 | 0.00 | 0.00 | 0.00 | 87 | 1017.8 |
| 20260507065756 | 23 | 183 | 0.0 | 0.0 | 0.00 | 0.00 | 0.00 | 86 | 1018.1 |
| 20260507065253 | 23 | 182 | 0.0 | 0.0 | 0.00 | 0.00 | 0.00 | 87 | 1018.1 |
| 20260507064750 | 23 | 180 | 0.0 | 0.0 | 0.00 | 0.00 | 0.00 | 88 | 1018.0 |
| 20260507064249 | 23 | 175 | 0.0 | 0.0 | 0.00 | 0.00 | 0.00 | 87 | 1018.1 |
| 20260507063746 | 23 | 188 | 0.0 | 0.0 | 0.00 | 0.00 | 0.00 | 87 | 1018.2 |
| 20260507063243 | 23 | 186 | 0.0 | 0.0 | 0.00 | 0.00 | 0.00 | 87 | 1018.3 |
| 20260507062740 | 23 | 187 | 0.0 | 0.0 | 0.00 | 0.00 | 0.00 | 87 | 1018.3 |
| 20260507062237 | 23 | 181 | 0.0 | 0.0 | 0.00 | 0.00 | 0.00 | 88 | 1018.3 |
| 20260507061735 | 23 | 179 | 0.0 | 0.0 | 0.00 | 0.00 | 0.00 | 87 | 1018.3 |
| 20260507061232 | 23 | 177 | 0.0 | 0.0 | 0.00 | 0.00 | 0.00 | 86 | 1018.6 |
| 20260507060731 | 23 | 179 | 0.0 | 0.0 | 0.00 | 0.00 | 0.00 | 86 | 1018.7 |
| 20260507060227 | 23 | 174 | 0.0 | 0.0 | 0.00 | 0.00 | 0.00 | 86 | 1018.9 |
| 20260507055723 | 23 | 168 | 0.0 | 0.0 | 0.00 | 0.00 | 0.00 | 86 | 1018.7 |
| 20260507055219 | 23 | 172 | 0.0 | 0.0 | 0.00 | 0.00 | 0.00 | 86 | 1018.8 |
| 20260507054715 | 23 | 176 | 0.0 | 1.6 | 0.00 | 0.00 | 0.00 | 85 | 1019.0 |
| 20260507054212 | 23 | 179 | 1.6 | 1.6 | 0.00 | 0.00 | 0.00 | 85 | 1018.9 |
| 20260507053710 | 23 | 202 | 0.0 | 0.0 | 0.00 | 0.00 | 0.00 | 85 | 1019.2 |
| 20260507053207 | 24 | 89 | 1.6 | 3.2 | 0.00 | 0.00 | 0.00 | 85 | 1019.2 |
| 20260507052706 | 24 | 152 | 1.6 | 1.6 | 0.00 | 0.00 | 0.00 | 85 | 1019.3 |
| 20260507052201 | 24 | 183 | 0.0 | 0.0 | 0.00 | 0.00 | 0.00 | 85 | 1019.3 |
| 20260507051700 | 24 | 184 | 0.0 | 0.0 | 0.00 | 0.00 | 0.00 | 85 | 1019.3 |
| 20260507051156 | 24 | 177 | 0.0 | 0.0 | 0.00 | 0.00 | 0.00 | 85 | 1019.4 |
| 20260507050653 | 24 | 176 | 0.0 | 0.0 | 0.00 | 0.00 | 0.00 | 86 | 1019.4 |
| 20260507050150 | 24 | 154 | 1.6 | 1.6 | 0.00 | 0.00 | 0.00 | 85 | 1019.4 |
| 20260507045647 | 24 | 169 | 1.6 | 1.6 | 0.00 | 0.00 | 0.00 | 85 | 1019.5 |
| 20260507045143 | 25 | 164 | 0.0 | 0.0 | 0.00 | 0.00 | 0.00 | 83 | 1019.8 |
| 20260507044640 | 25 | 153 | 1.6 | 3.2 | 0.00 | 0.00 | 0.00 | 84 | 1019.8 |
| 20260507044137 | 24 | 170 | 0.0 | 1.6 | 0.00 | 0.00 | 0.00 | 85 | 1019.9 |
| 20260507043633 | 25 | 176 | 1.6 | 1.6 | 0.00 | 0.00 | 0.00 | 85 | 1019.8 |
| 20260507043130 | 25 | 148 | 0.0 | 0.0 | 0.00 | 0.00 | 0.00 | 84 | 1019.7 |
| 20260507042626 | 25 | 177 | 0.0 | 0.0 | 0.00 | 0.00 | 0.00 | 85 | 1019.9 |
| 20260507042121 | 24 | 103 | 4.8 | 4.8 | 0.00 | 0.00 | 0.00 | 85 | 1020.0 |
| 20260507041619 | 25 | 189 | 1.6 | 3.2 | 0.00 | 0.00 | 0.00 | 84 | 1019.9 |
| 20260507041115 | 25 | 176 | 1.6 | 3.2 | 0.00 | 0.00 | 0.00 | 84 | 1020.0 |
| 20260507040612 | 25 | 152 | 1.6 | 1.6 | 0.00 | 0.00 | 0.00 | 83 | 1020.2 |
| 20260507040109 | 25 | 103 | 1.6 | 1.6 | 0.00 | 0.00 | 0.00 | 82 | 1020.0 |
| 20260507035605 | 25 | 134 | 1.6 | 1.6 | 0.00 | 0.00 | 0.00 | 83 | 1020.2 |
| 20260507035101 | 25 | 171 | 1.6 | 1.6 | 0.00 | 0.00 | 0.00 | 83 | 1020.1 |
| 20260507034558 | 25 | 152 | 1.6 | 1.6 | 0.00 | 0.00 | 0.00 | 83 | 1020.2 |
| 20260507034056 | 25 | 186 | 1.6 | 1.6 | 0.00 | 0.00 | 0.00 | 84 | 1020.1 |
| 20260507033554 | 25 | 177 | 1.6 | 1.6 | 0.00 | 0.00 | 0.00 | 84 | 1020.1 |
| 20260507033050 | 25 | 187 | 1.6 | 1.6 | 0.00 | 0.00 | 0.00 | 84 | 1020.4 |
| 20260507032548 | 25 | 157 | 1.6 | 1.6 | 0.00 | 0.00 | 0.00 | 83 | 1020.5 |
| 20260507032044 | 25 | 146 | 1.6 | 1.6 | 0.00 | 0.00 | 0.00 | 83 | 1020.1 |
| 20260507031540 | 25 | 172 | 1.6 | 1.6 | 0.00 | 0.00 | 0.00 | 83 | 1020.2 |
| 20260507031038 | 25 | 148 | 1.6 | 1.6 | 0.00 | 0.00 | 0.00 | 83 | 1020.3 |
| 20260507030534 | 25 | 151 | 1.6 | 1.6 | 0.00 | 0.00 | 0.00 | 83 | 1020.3 |
| 20260507030032 | 25 | 146 | 1.6 | 3.2 | 0.00 | 0.00 | 0.00 | 83 | 1020.4 |
| 20260507025529 | 25 | 164 | 3.2 | 3.2 | 0.00 | 0.00 | 0.00 | 83 | 1020.5 |
| 20260507025026 | 25 | 170 | 1.6 | 3.2 | 0.00 | 0.00 | 0.00 | 83 | 1020.4 |
| 20260507024524 | 26 | 165 | 4.8 | 8.0 | 0.00 | 0.00 | 0.00 | 82 | 1020.2 |
| 20260507024020 | 26 | 156 | 4.8 | 4.8 | 0.00 | 0.00 | 0.00 | 82 | 1020.5 |
| 20260507023516 | 26 | 122 | 4.8 | 4.8 | 0.00 | 0.00 | 0.00 | 82 | 1020.4 |
| 20260507023015 | 26 | 105 | 3.2 | 4.8 | 0.00 | 0.00 | 0.00 | 82 | 1020.5 |
| 20260507022511 | 26 | 134 | 3.2 | 4.8 | 0.00 | 0.00 | 0.00 | 82 | 1020.4 |
| 20260507022006 | 26 | 162 | 3.2 | 3.2 | 0.00 | 0.00 | 0.00 | 83 | 1020.3 |
| 20260507021502 | 26 | 137 | 3.2 | 3.2 | 0.00 | 0.00 | 0.00 | 84 | 1020.2 |
| 20260507020959 | 26 | 113 | 6.4 | 8.0 | 0.00 | 0.00 | 0.00 | 85 | 1020.3 |
| 20260507020456 | 26 | 131 | 1.6 | 3.2 | 0.00 | 0.00 | 0.00 | 87 | 1020.0 |
| 20260507015953 | 26 | 144 | 1.6 | 3.2 | 0.00 | 0.00 | 0.00 | 88 | 1020.0 |
| 20260507015451 | 26 | 152 | 3.2 | 4.8 | 0.00 | 0.00 | 0.00 | 88 | 1020.1 |
| 20260507014948 | 26 | 122 | 1.6 | 3.2 | 0.00 | 0.00 | 0.00 | 88 | 1019.5 |
| 20260507014445 | 26 | 109 | 4.8 | 4.8 | 0.00 | 0.00 | 0.00 | 88 | 1019.6 |
| 20260507013941 | 26 | 156 | 1.6 | 3.2 | 0.00 | 0.00 | 0.00 | 87 | 1019.9 |
| 20260507013437 | 26 | 183 | 1.6 | 1.6 | 0.00 | 0.00 | 0.00 | 88 | 1019.4 |
| 20260507012935 | 26 | 210 | 1.6 | 1.6 | 0.00 | 0.00 | 0.00 | 89 | 1019.5 |
| 20260507012432 | 26 | 174 | 1.6 | 1.6 | 0.00 | 0.00 | 0.00 | 88 | 1019.5 |
| 20260507011928 | 26 | 121 | 3.2 | 3.2 | 0.00 | 0.00 | 0.00 | 89 | 1019.5 |
| 20260507011426 | 27 | 185 | 0.0 | 1.6 | 0.00 | 0.00 | 0.00 | 88 | 1019.3 |
| 20260507010925 | 27 | 179 | 3.2 | 3.2 | 0.00 | 0.00 | 0.00 | 88 | 1019.2 |
| 20260507010421 | 27 | 195 | 1.6 | 1.6 | 0.00 | 0.00 | 0.00 | 88 | 1019.1 |
| 20260507005918 | 27 | 201 | 0.0 | 0.0 | 0.00 | 0.00 | 0.00 | 88 | 1019.2 |
| 20260507005415 | 27 | 182 | 3.2 | 3.2 | 0.00 | 0.00 | 0.00 | 88 | 1019.2 |
| 20260507004912 | 27 | 226 | 1.6 | 1.6 | 0.00 | 0.00 | 0.00 | 88 | 1018.9 |
| 20260507004408 | 27 | 172 | 3.2 | 3.2 | 0.00 | 0.00 | 0.00 | 88 | 1019.0 |
| 20260507003906 | 27 | 201 | 0.0 | 0.0 | 0.00 | 0.00 | 0.00 | 87 | 1019.0 |
| 20260507003401 | 27 | 188 | 3.2 | 3.2 | 0.00 | 0.00 | 0.00 | 88 | 1018.8 |
| 20260507002857 | 27 | 229 | 0.0 | 0.0 | 0.00 | 0.00 | 0.00 | 88 | 1018.9 |
| 20260507002353 | 27 | 205 | 1.6 | 3.2 | 0.00 | 0.00 | 0.00 | 87 | 1018.9 |
| 20260507001850 | 27 | 209 | 0.0 | 1.6 | 0.00 | 0.00 | 0.00 | 87 | 1018.9 |
| 20260507001347 | 27 | 176 | 1.6 | 1.6 | 0.00 | 0.00 | 0.00 | 87 | 1018.7 |
| 20260507000843 | 27 | 233 | 1.6 | 1.6 | 0.00 | 0.00 | 0.00 | 87 | 1018.7 |
| 20260507000339 | 27 | 224 | 4.8 | 4.8 | 0.00 | 0.00 | 0.00 | 87 | 1018.3 |
| 20260506235836 | 27 | 318 | 1.6 | 1.6 | 0.00 | 0.00 | 0.00 | 87 | 1018.6 |
| 20260506235333 | 27 | 202 | 1.6 | 1.6 | 0.00 | 0.00 | 0.00 | 87 | 1018.5 |
| 20260506234828 | 27 | 237 | 1.6 | 3.2 | 0.00 | 0.00 | 0.00 | 86 | 1018.5 |
| 20260506234326 | 27 | 193 | 1.6 | 1.6 | 0.00 | 0.00 | 0.00 | 86 | 1018.1 |
| 20260506233824 | 27 | 204 | 1.6 | 3.2 | 0.00 | 0.00 | 0.00 | 86 | 1017.9 |
| 20260506233319 | 27 | 224 | 1.6 | 1.6 | 0.00 | 0.00 | 0.00 | 85 | 1018.1 |
| 20260506232817 | 28 | 222 | 4.8 | 8.0 | 0.00 | 0.00 | 0.00 | 85 | 1018.2 |
| 20260506232312 | 28 | 258 | 1.6 | 1.6 | 0.00 | 0.00 | 0.00 | 85 | 1017.8 |
| 20260506231809 | 28 | 260 | 1.6 | 3.2 | 0.00 | 0.00 | 0.00 | 84 | 1017.8 |
| 20260506231307 | 28 | 196 | 1.6 | 3.2 | 0.00 | 0.00 | 0.00 | 84 | 1017.8 |
| 20260506230804 | 28 | 259 | 0.0 | 1.6 | 0.00 | 0.00 | 0.00 | 83 | 1017.7 |
| 20260506230301 | 28 | 223 | 3.2 | 3.2 | 0.00 | 0.00 | 0.00 | 83 | 1017.8 |
| 20260506225757 | 29 | 281 | 4.8 | 4.8 | 0.00 | 0.00 | 0.00 | 81 | 1017.5 |
| 20260506225254 | 29 | 237 | 3.2 | 3.2 | 0.00 | 0.00 | 0.00 | 79 | 1017.4 |
| 20260506224750 | 30 | 215 | 4.8 | 8.0 | 0.00 | 0.00 | 0.00 | 78 | 1017.6 |
| 20260506224248 | 30 | 263 | 1.6 | 3.2 | 0.00 | 0.00 | 0.00 | 75 | 1017.2 |
| 20260506223744 | 31 | 211 | 1.6 | 3.2 | 0.00 | 0.00 | 0.00 | 73 | 1017.1 |
| 20260506223240 | 31 | 286 | 3.2 | 3.2 | 0.00 | 0.00 | 0.00 | 72 | 1017.1 |
| 20260506222737 | 31 | 257 | 1.6 | 1.6 | 0.00 | 0.00 | 0.00 | 71 | 1016.8 |
| 20260506222232 | 31 | 235 | 0.0 | 1.6 | 0.00 | 0.00 | 0.00 | 71 | 1017.2 |
| 20260506221731 | 31 | 151 | 0.0 | 1.6 | 0.00 | 0.00 | 0.00 | 73 | 1017.0 |
| 20260506221228 | 31 | 239 | 0.0 | 0.0 | 0.00 | 0.00 | 0.00 | 74 | 1017.0 |
| 20260506220725 | 31 | 142 | 0.0 | 0.0 | 0.00 | 0.00 | 0.00 | 73 | 1016.9 |
| 20260506220220 | 30 | 106 | 1.6 | 1.6 | 0.00 | 0.00 | 0.00 | 75 | 1017.1 |
| 20260506215717 | 30 | 140 | 1.6 | 3.2 | 0.00 | 0.00 | 0.00 | 75 | 1016.7 |
| 20260506215213 | 30 | 352 | 3.2 | 3.2 | 0.00 | 0.00 | 0.00 | 76 | 1016.9 |
| 20260506214709 | 31 | 55 | 1.6 | 1.6 | 0.00 | 0.00 | 0.00 | 74 | 1016.7 |
| 20260506214207 | 31 | 138 | 1.6 | 1.6 | 0.00 | 0.00 | 0.00 | 72 | 1016.7 |
| 20260506213705 | 31 | 17 | 1.6 | 3.2 | 0.00 | 0.00 | 0.00 | 72 | 1016.8 |
| 20260506213202 | 31 | 164 | 1.6 | 1.6 | 0.00 | 0.00 | 0.00 | 74 | 1016.9 |
| 20260506212659 | 31 | 119 | 1.6 | 1.6 | 0.00 | 0.00 | 0.00 | 73 | 1016.5 |
| 20260506212154 | 31 | 69 | 3.2 | 3.2 | 0.00 | 0.00 | 0.00 | 73 | 1016.7 |
| 20260506211650 | 31 | 87 | 3.2 | 4.8 | 0.00 | 0.00 | 0.00 | 73 | 1016.4 |
| 20260506211146 | 31 | 100 | 3.2 | 4.8 | 0.00 | 0.00 | 0.00 | 71 | 1016.6 |
| 20260506210643 | 31 | 33 | 4.8 | 9.7 | 0.00 | 0.00 | 0.00 | 72 | 1016.4 |
| 20260506210140 | 31 | 118 | 3.2 | 4.8 | 0.00 | 0.00 | 0.00 | 71 | 1016.5 |
| 20260506205638 | 31 | 93 | 1.6 | 3.2 | 0.00 | 0.00 | 0.00 | 72 | 1016.8 |
| 20260506205132 | 31 | 131 | 4.8 | 4.8 | 0.00 | 0.00 | 0.00 | 72 | 1016.5 |
| 20260506204630 | 31 | 145 | 0.0 | 1.6 | 0.00 | 0.00 | 0.00 | 72 | 1016.4 |
| 20260506204127 | 32 | 53 | 4.8 | 9.7 | 0.00 | 0.00 | 0.00 | 72 | 1016.5 |
| 20260506203625 | 31 | 33 | 4.8 | 8.0 | 0.00 | 0.00 | 0.00 | 71 | 1016.5 |